Dunoon, United Kingdom
Current Conditions -  °F | °C
As of 9:20 PM on Saturday 22 Nov 2014 (Local Time) from EGPF Reporting Station
Broken Clouds Broken Clouds  
Wind Chill: 43°   Ceiling: 4200
Heat Index: 43°   Visibility: 5mi
Dew Point: 43°   Wind: 1mph
Humidity: 100%   Direction: 350°N
Pressure: 29.91"   Gusts: NA
Location:  55.95°N, 4.92°W
Report Text: EGPF 222120Z AUTO 35001KT 8000 BKN042 06/06 Q1013
Loading
Personal Weather Stations






























Interactive Weather Map New forecast layout! Learn more

10-Day Weather Forecast

Advertisements
Track Severe Weather on mobile